Time;durP1;ratioP1;P1;durP2;ratioP2;P2;SDS_P1;SDS_P2;PMS_P1;PMS_P2;Temp;Humidity;BMP_temperature;BMP_pressure;BME280_temperature;BME280_humidity;BME280_pressure;Samples;Min_cycle;Max_cycle;Signal;HPM_P1;HPM_P2
2021/01/15 00:01:06;;;;;;;;;4.75;4.75;;;;;14.04;46.83;98193.47;6024417;22;102237;-78
2021/01/15 00:03:38;;;;;;;;;3.25;3.25;;;;;14.02;46.31;98192.84;6024827;22;102328;-77
2021/01/15 00:06:06;;;;;;;;;7.00;6.00;;;;;14.01;46.52;98197.47;6022600;22;107974;-78
2021/01/15 00:08:39;;;;;;;;;6.25;5.25;;;;;13.99;47.19;98207.75;6028902;22;102291;-77
2021/01/15 00:11:14;;;;;;;;;4.00;3.75;;;;;13.98;46.14;98203.38;6023289;22;102350;-77
2021/01/15 00:13:41;;;;;;;;;4.75;4.00;;;;;13.95;46.44;98201.13;6025432;22;102332;-77
2021/01/15 00:16:17;;;;;;;;;4.75;4.00;;;;;13.95;46.66;98209.28;6024456;22;103187;-77
2021/01/15 00:18:43;;;;;;;;;4.25;3.25;;;;;13.93;46.00;98216.00;5987573;22;102254;-77
2021/01/15 00:21:18;;;;;;;;;5.50;4.50;;;;;13.91;46.84;98213.53;6025597;22;102334;-77
2021/01/15 00:23:44;;;;;;;;;4.00;4.00;;;;;13.91;46.33;98218.97;6003154;22;102442;-77
2021/01/15 00:26:17;;;;;;;;;5.00;4.75;;;;;13.88;46.92;98227.56;6023425;22;103327;-77
2021/01/15 00:28:44;;;;;;;;;4.75;3.50;;;;;13.88;46.28;98234.88;6019872;22;102302;-77
2021/01/15 00:31:11;;;;;;;;;5.25;4.00;;;;;13.86;46.88;98237.84;6027431;22;102518;-78
2021/01/15 00:33:38;;;;;;;;;2.75;2.75;;;;;13.83;47.01;98236.41;6020488;22;103795;-77
2021/01/15 00:36:06;;;;;;;;;3.25;3.00;;;;;13.83;47.09;98249.16;6026022;22;103533;-77
2021/01/15 00:38:32;;;;;;;;;6.00;4.25;;;;;13.82;46.86;98247.53;6029784;22;102110;-77
2021/01/15 00:41:00;;;;;;;;;3.25;3.25;;;;;13.80;46.01;98255.06;6022146;22;102136;-77
2021/01/15 00:43:27;;;;;;;;;3.75;3.00;;;;;13.80;47.22;98257.78;5998299;22;102384;-78
2021/01/15 00:45:53;;;;;;;;;4.25;4.00;;;;;13.78;46.99;98258.00;6027217;22;103049;-78
2021/01/15 00:48:20;;;;;;;;;5.25;3.25;;;;;13.77;47.12;98253.66;6023358;22;102301;-77
2021/01/15 00:50:47;;;;;;;;;3.00;3.00;;;;;13.76;47.21;98256.59;6017586;22;102201;-77
2021/01/15 00:53:14;;;;;;;;;4.25;4.00;;;;;13.73;46.54;98267.94;6029642;22;102362;-77
2021/01/15 00:55:41;;;;;;;;;3.50;2.50;;;;;13.74;47.19;98267.69;6022625;22;103342;-77
2021/01/15 00:58:13;;;;;;;;;4.00;4.00;;;;;13.73;46.20;98257.06;6027552;22;102448;-77
2021/01/15 01:00:40;;;;;;;;;3.75;3.00;;;;;13.73;46.07;98267.94;6024961;22;102174;-77
2021/01/15 01:03:07;;;;;;;;;3.00;2.50;;;;;13.71;47.07;98264.59;6017148;22;105449;-78
2021/01/15 01:05:34;;;;;;;;;4.50;4.00;;;;;13.69;46.86;98261.25;6013917;22;108007;-77
2021/01/15 01:08:01;;;;;;;;;3.50;3.50;;;;;13.68;46.98;98268.63;6000688;22;102411;-77
2021/01/15 01:10:28;;;;;;;;;3.00;3.00;;;;;13.65;46.86;98274.47;6022485;22;102340;-77
2021/01/15 01:12:54;;;;;;;;;4.25;4.00;;;;;13.65;46.13;98268.22;6026661;22;102418;-78
2021/01/15 01:15:21;;;;;;;;;4.00;4.00;;;;;13.65;47.25;98268.22;6023079;22;103937;-78
2021/01/15 01:17:48;;;;;;;;;2.75;2.25;;;;;13.64;46.35;98269.31;6023202;22;102474;-77
2021/01/15 01:20:15;;;;;;;;;4.00;3.00;;;;;13.62;46.60;98274.94;6026813;22;102197;-77
2021/01/15 01:22:49;;;;;;;;;3.75;3.00;;;;;13.62;46.16;98274.94;6028478;22;102453;-77
2021/01/15 01:25:16;;;;;;;;;3.00;3.00;;;;;13.62;46.85;98282.28;6024304;22;103519;-77
2021/01/15 01:27:44;;;;;;;;;3.00;3.00;;;;;13.59;47.19;98280.84;6022930;22;102334;-77
2021/01/15 01:30:12;;;;;;;;;3.00;2.50;;;;;13.56;46.77;98285.88;6026734;22;101991;-77
2021/01/15 01:32:39;;;;;;;;;4.00;3.75;;;;;13.57;46.49;98292.97;6026555;22;102226;-77
2021/01/15 01:35:06;;;;;;;;;2.50;2.50;;;;;13.55;47.10;98284.25;6029296;22;103603;-78
2021/01/15 01:37:33;;;;;;;;;3.00;2.00;;;;;13.55;46.86;98287.81;6020404;22;102350;-78
2021/01/15 01:39:59;;;;;;;;;3.00;2.00;;;;;13.53;46.36;98286.34;6027232;22;102208;-78
2021/01/15 01:42:26;;;;;;;;;3.75;3.00;;;;;13.51;47.10;98293.91;6029150;22;102262;-77
2021/01/15 01:44:53;;;;;;;;;4.75;4.25;;;;;13.51;46.81;98294.72;6024601;22;103419;-77
2021/01/15 01:47:19;;;;;;;;;3.50;3.25;;;;;13.50;47.11;98297.69;6024517;22;102333;-78
2021/01/15 01:49:46;;;;;;;;;2.25;2.25;;;;;13.50;46.84;98297.69;6019756;22;102352;-77
2021/01/15 01:52:13;;;;;;;;;3.25;3.00;;;;;13.46;46.43;98291.88;6001361;22;102506;-77
2021/01/15 01:54:40;;;;;;;;;2.25;2.25;;;;;13.46;46.64;98291.88;5997785;22;103483;-73
2021/01/15 01:57:06;;;;;;;;;3.75;3.25;;;;;13.46;47.11;98296.47;5998699;22;102214;-72
2021/01/15 01:59:35;;;;;;;;;3.00;2.00;;;;;13.45;46.30;98284.78;6025641;22;102345;-72
2021/01/15 02:02:01;;;;;;;;;3.75;3.00;;;;;13.44;46.24;98298.56;6022815;22;102381;-72
2021/01/15 02:04:29;;;;;;;;;3.25;2.75;;;;;13.44;46.60;98287.72;5991628;22;103551;-72
2021/01/15 02:06:55;;;;;;;;;2.25;2.25;;;;;13.42;46.30;98289.84;6012752;22;102262;-72
2021/01/15 02:09:52;;;;;;;;;3.50;2.50;;;;;13.40;46.66;98293.59;6017711;22;102169;-72
2021/01/15 02:12:38;;;;;;;;;3.75;3.00;;;;;13.40;46.72;98304.47;5945893;22;102606;-72
2021/01/15 02:15:10;;;;;;;;;3.00;3.00;;;;;13.39;46.72;98305.53;5997256;22;107862;-72
2021/01/15 02:17:40;;;;;;;;;2.50;2.50;;;;;13.37;46.16;98302.19;5998265;22;102281;-72
2021/01/15 02:20:11;;;;;;;;;4.25;3.00;;;;;13.37;46.71;98304.09;5998493;22;102368;-72
2021/01/15 02:23:19;;;;;;;;;2.75;2.75;;;;;13.35;47.15;98293.44;5999388;22;102315;-72
2021/01/15 02:26:06;;;;;;;;;3.00;3.00;;;;;13.34;46.69;98301.81;5946649;22;108029;-77
2021/01/15 02:29:11;;;;;;;;;2.25;2.00;;;;;13.33;46.54;98302.88;6025790;22;102190;-77
2021/01/15 02:31:44;;;;;;;;;3.00;3.00;;;;;13.31;46.75;98297.69;5935043;22;103022;-75
2021/01/15 02:34:36;;;;;;;;;4.25;3.50;;;;;13.31;46.30;98302.28;6025516;22;102404;-78
2021/01/15 02:37:21;;;;;;;;;3.00;2.00;;;;;13.30;46.59;98304.16;6025214;22;103920;-78
2021/01/15 02:40:03;;;;;;;;;2.00;2.00;;;;;13.29;46.25;98307.09;5936066;22;104142;-77
2021/01/15 02:42:32;;;;;;;;;3.00;3.00;;;;;13.28;46.20;98300.03;6028127;22;102060;-77
2021/01/15 02:44:59;;;;;;;;;3.50;2.25;;;;;13.26;46.26;98308.38;6001106;22;102385;-78
2021/01/15 02:47:36;;;;;;;;;4.00;3.00;;;;;13.25;47.10;98295.84;6017778;22;103414;-77
2021/01/15 02:50:04;;;;;;;;;3.25;3.00;;;;;13.25;47.30;98311.31;5999403;22;102274;-78
2021/01/15 02:52:31;;;;;;;;;3.25;2.75;;;;;13.24;47.27;98310.47;5996740;22;102290;-77
2021/01/15 02:54:57;;;;;;;;;2.00;2.00;;;;;13.23;46.36;98313.44;6022010;22;102306;-78
2021/01/15 02:57:24;;;;;;;;;2.00;2.00;;;;;13.23;46.42;98318.88;5999819;22;103778;-78
2021/01/15 02:59:51;;;;;;;;;2.50;2.25;;;;;13.21;46.47;98310.09;6018185;22;102462;-77
2021/01/15 03:02:26;;;;;;;;;2.00;2.00;;;;;13.20;46.31;98309.28;5998936;22;102389;-77
2021/01/15 03:05:02;;;;;;;;;1.00;1.00;;;;;13.20;46.42;98311.16;5988841;22;102394;-78
2021/01/15 03:07:29;;;;;;;;;3.25;2.00;;;;;13.17;46.94;98315.16;5998584;22;103778;-77
2021/01/15 03:09:58;;;;;;;;;3.50;3.00;;;;;13.18;47.00;98307.84;6019170;22;102149;-78
2021/01/15 03:12:26;;;;;;;;;2.00;2.00;;;;;13.17;46.46;98309.72;5974975;22;102446;-78
2021/01/15 03:14:53;;;;;;;;;4.00;3.00;;;;;13.17;47.19;98312.44;6018416;22;102448;-78
2021/01/15 03:17:25;;;;;;;;;3.25;2.00;;;;;13.17;47.18;98311.63;5997096;22;103105;-77
2021/01/15 03:19:51;;;;;;;;;4.50;3.75;;;;;13.14;47.00;98312.91;5997654;22;102323;-78
2021/01/15 03:22:18;;;;;;;;;2.50;2.00;;;;;13.15;47.05;98314.53;5995349;22;102362;-78
2021/01/15 03:24:56;;;;;;;;;5.00;3.75;;;;;13.14;46.84;98312.06;6023287;22;102276;-77
2021/01/15 03:27:24;;;;;;;;;3.25;3.25;;;;;13.13;46.15;98310.41;5995607;22;103279;-77
2021/01/15 03:29:51;;;;;;;;;3.25;2.75;;;;;13.11;46.95;98302.47;6002173;22;102279;-77
2021/01/15 03:32:18;;;;;;;;;4.50;2.50;;;;;13.10;46.32;98306.22;5998673;22;102295;-77
2021/01/15 03:34:44;;;;;;;;;2.50;2.00;;;;;13.10;47.10;98310.84;5999524;22;102797;-77
2021/01/15 03:37:11;;;;;;;;;4.75;3.00;;;;;13.08;47.38;98310.22;6002619;22;103903;-77
2021/01/15 03:39:38;;;;;;;;;2.00;2.00;;;;;13.09;46.88;98315.44;6002189;22;102391;-77
2021/01/15 03:42:05;;;;;;;;;3.50;3.00;;;;;13.07;47.19;98309.38;5999577;22;102283;-78
2021/01/15 03:44:31;;;;;;;;;2.00;2.00;;;;;13.08;46.12;98319.19;6001322;22;102358;-78
2021/01/15 03:46:58;;;;;;;;;3.00;3.00;;;;;13.06;46.20;98313.13;6002761;22;103810;-78
2021/01/15 03:49:25;;;;;;;;;4.25;3.00;;;;;13.06;46.59;98320.47;6023246;22;102263;-77
2021/01/15 03:51:52;;;;;;;;;3.00;3.00;;;;;13.05;47.14;98318.81;6030674;22;102300;-78
2021/01/15 03:54:18;;;;;;;;;3.75;2.00;;;;;13.04;46.88;98317.97;6028710;22;104426;-77
2021/01/15 03:56:46;;;;;;;;;3.50;3.00;;;;;13.03;46.60;98318.19;6025398;22;103929;-78
2021/01/15 03:59:12;;;;;;;;;2.00;2.00;;;;;13.02;47.21;98313.81;6027603;22;102266;-77
2021/01/15 04:01:40;;;;;;;;;3.50;2.50;;;;;13.02;46.43;98306.50;6006190;22;102471;-75
2021/01/15 04:04:07;;;;;;;;;3.50;3.00;;;;;13.01;46.51;98313.00;6026673;22;102524;-78
2021/01/15 04:06:33;;;;;;;;;3.00;2.75;;;;;13.01;47.17;98310.28;6002745;22;103350;-78
2021/01/15 04:09:00;;;;;;;;;3.00;2.00;;;;;12.99;46.58;98309.66;6025957;22;102230;-78
2021/01/15 04:11:27;;;;;;;;;3.25;3.00;;;;;12.98;46.58;98306.13;6027048;22;102419;-78
2021/01/15 04:13:54;;;;;;;;;2.00;2.00;;;;;12.97;46.34;98295.47;6028116;22;102512;-78
2021/01/15 04:16:21;;;;;;;;;3.00;2.75;;;;;12.96;46.53;98297.41;6031382;22;103877;-78
2021/01/15 04:18:47;;;;;;;;;5.25;3.00;;;;;12.96;46.58;98302.00;6027322;22;102231;-78
2021/01/15 04:21:15;;;;;;;;;3.00;3.00;;;;;12.95;46.91;98298.44;6022863;22;102917;-78
2021/01/15 04:23:45;;;;;;;;;2.75;2.50;;;;;12.93;47.01;98297.81;6032457;22;102479;-78
2021/01/15 04:26:18;;;;;;;;;2.50;2.00;;;;;12.94;47.10;98293.22;6026127;22;103337;-77
2021/01/15 04:28:46;;;;;;;;;2.00;2.00;;;;;12.91;47.00;98310.81;6023583;22;102216;-77
2021/01/15 04:31:17;;;;;;;;;2.00;1.75;;;;;12.92;46.42;98298.06;6016462;22;102383;-77
2021/01/15 04:33:44;;;;;;;;;3.50;2.50;;;;;12.92;47.00;98298.06;6002442;22;102952;-78
2021/01/15 04:36:13;;;;;;;;;3.00;3.00;;;;;12.90;46.90;98297.44;6008683;22;103825;-77
2021/01/15 04:38:46;;;;;;;;;2.25;2.25;;;;;12.92;46.96;98300.78;6008716;22;102707;-77
2021/01/15 04:41:21;;;;;;;;;2.00;1.75;;;;;12.90;47.16;98294.72;6000673;22;102488;-77
2021/01/15 04:43:51;;;;;;;;;4.00;3.00;;;;;12.89;46.38;98293.06;6005477;22;102850;-77
2021/01/15 04:46:17;;;;;;;;;2.00;2.00;;;;;12.87;46.83;98290.59;5995437;22;103973;-77
2021/01/15 04:48:44;;;;;;;;;3.00;2.00;;;;;12.86;47.05;98296.22;6021614;22;102335;-78
2021/01/15 04:51:14;;;;;;;;;6.25;2.50;;;;;12.85;46.74;98295.41;5995677;22;102199;-77
2021/01/15 04:53:41;;;;;;;;;2.25;2.00;;;;;12.85;47.42;98300.00;6024184;22;102282;-78
2021/01/15 04:56:08;;;;;;;;;2.00;2.00;;;;;12.85;46.53;98291.84;6020069;22;103384;-78
2021/01/15 04:58:35;;;;;;;;;2.00;2.00;;;;;12.84;47.06;98299.16;6044714;22;102214;-78
2021/01/15 05:01:01;;;;;;;;;1.00;1.00;;;;;12.84;46.76;98299.16;5994943;22;102265;-77
2021/01/15 05:03:28;;;;;;;;;3.00;2.75;;;;;12.83;46.47;98307.53;6018154;22;102323;-78
2021/01/15 05:05:59;;;;;;;;;3.00;2.00;;;;;12.83;47.31;98302.91;5999644;22;103350;-78
2021/01/15 05:08:27;;;;;;;;;3.00;3.00;;;;;12.83;47.03;98302.91;5998039;22;102363;-78
2021/01/15 05:10:54;;;;;;;;;2.50;2.25;;;;;12.82;46.55;98295.03;5993127;22;102145;-78
2021/01/15 05:13:20;;;;;;;;;2.50;2.50;;;;;12.80;46.68;98288.97;6003116;22;102482;-77
2021/01/15 05:15:51;;;;;;;;;3.00;3.00;;;;;12.81;46.82;98306.91;6000983;22;103236;-78
2021/01/15 05:18:19;;;;;;;;;4.50;3.00;;;;;12.81;46.97;98298.78;6001236;22;102217;-77
2021/01/15 05:20:46;;;;;;;;;3.50;2.75;;;;;12.80;47.19;98310.69;6014993;22;102276;-77
2021/01/15 05:23:14;;;;;;;;;3.00;2.00;;;;;12.79;46.68;98303.59;6000930;22;102449;-77
2021/01/15 05:25:45;;;;;;;;;2.00;1.50;;;;;12.78;46.99;98307.38;6022419;22;103287;-77
2021/01/15 05:28:15;;;;;;;;;2.50;2.50;;;;;12.78;46.56;98307.38;6022404;22;102310;-77
2021/01/15 05:30:42;;;;;;;;;2.50;2.00;;;;;12.78;46.79;98304.66;5999885;22;102207;-77
2021/01/15 05:33:15;;;;;;;;;2.75;2.75;;;;;12.77;47.06;98303.00;6003745;22;102434;-78
2021/01/15 05:35:50;;;;;;;;;1.50;1.50;;;;;12.75;46.84;98300.50;6016938;22;108813;-77
2021/01/15 05:38:18;;;;;;;;;3.00;2.25;;;;;12.73;46.56;98312.63;5998527;22;102132;-78
2021/01/15 05:40:52;;;;;;;;;2.00;2.00;;;;;12.75;46.72;98310.50;5999316;22;102312;-77
2021/01/15 05:43:20;;;;;;;;;4.00;3.00;;;;;12.73;46.96;98301.78;6022845;22;102247;-78
2021/01/15 05:46:17;;;;;;;;;4.00;2.00;;;;;12.72;46.54;98298.22;5999509;22;103412;-78
2021/01/15 05:48:45;;;;;;;;;1.75;1.75;;;;;12.73;47.10;98312.63;6004368;22;102307;-77
2021/01/15 05:51:28;;;;;;;;;2.50;2.50;;;;;12.72;46.29;98300.94;6015619;22;102128;-77
2021/01/15 05:53:55;;;;;;;;;2.25;1.75;;;;;12.71;46.85;98312.84;5996982;22;103068;-78
2021/01/15 05:56:23;;;;;;;;;3.00;1.25;;;;;12.71;47.32;98314.72;6027567;22;103308;-78
2021/01/15 05:59:14;;;;;;;;;2.50;2.25;;;;;12.69;46.40;98311.41;6028035;22;104305;-78
2021/01/15 06:01:57;;;;;;;;;2.25;2.25;;;;;12.69;46.54;98314.97;6024715;22;102149;-77
2021/01/15 06:04:39;;;;;;;;;3.00;2.75;;;;;12.69;46.21;98322.28;6022472;22;102395;-78
2021/01/15 06:07:09;;;;;;;;;2.25;2.25;;;;;12.69;46.23;98322.28;6021898;22;107829;-78
2021/01/15 06:09:36;;;;;;;;;2.25;2.00;;;;;12.67;47.23;98324.34;6035171;22;102071;-78
2021/01/15 06:12:07;;;;;;;;;2.00;2.00;;;;;12.66;46.89;98345.22;6027185;22;102156;-78
2021/01/15 06:14:33;;;;;;;;;2.00;2.00;;;;;12.66;46.18;98366.09;6001320;22;102281;-78
2021/01/15 06:17:04;;;;;;;;;2.00;2.00;;;;;12.65;46.69;98375.31;6030570;22;103832;-78
2021/01/15 06:19:50;;;;;;;;;4.75;3.00;;;;;12.64;46.30;98379.91;6023870;22;102336;-77
2021/01/15 06:22:30;;;;;;;;;2.25;2.00;;;;;12.61;46.50;98376.78;5944464;22;102262;-78
2021/01/15 06:25:06;;;;;;;;;2.00;2.00;;;;;12.62;46.38;98389.28;6025350;22;102193;-78
2021/01/15 06:27:34;;;;;;;;;2.00;2.00;;;;;12.61;46.87;98388.44;6027631;22;103218;-78
2021/01/15 06:30:06;;;;;;;;;2.00;1.75;;;;;12.60;46.77;98388.69;6025855;22;102278;-78
2021/01/15 06:32:32;;;;;;;;;3.50;2.75;;;;;12.60;46.39;98388.69;6001981;22;102218;-78
2021/01/15 06:34:59;;;;;;;;;2.75;2.25;;;;;12.60;47.06;98402.25;6029808;22;102248;-78
2021/01/15 06:37:26;;;;;;;;;2.25;1.50;;;;;12.59;46.24;98400.56;6026932;22;103446;-78
2021/01/15 06:40:09;;;;;;;;;2.25;1.00;;;;;12.56;46.61;98410.00;6007226;22;102336;-78
2021/01/15 06:42:43;;;;;;;;;3.50;2.00;;;;;12.59;46.84;98419.56;6002161;22;102444;-78
2021/01/15 06:45:13;;;;;;;;;2.00;2.00;;;;;12.55;47.02;98410.22;6001150;22;104146;-76
2021/01/15 06:47:43;;;;;;;;;2.00;2.00;;;;;12.53;46.76;98424.81;6028006;22;103222;-78
2021/01/15 06:50:14;;;;;;;;;2.25;2.00;;;;;12.54;46.19;98428.34;6029882;22;103864;-77
2021/01/15 06:52:46;;;;;;;;;3.00;3.00;;;;;12.53;46.42;98432.94;6021994;22;102159;-77
2021/01/15 06:55:15;;;;;;;;;2.00;2.00;;;;;12.52;46.30;98435.88;6027292;22;102240;-78
2021/01/15 06:57:48;;;;;;;;;2.00;0.75;;;;;12.53;46.87;98437.53;6021958;22;103383;-78
2021/01/15 07:00:23;;;;;;;;;3.25;2.50;;;;;12.51;46.92;98456.75;6033065;22;102189;-77
2021/01/15 07:03:09;;;;;;;;;4.00;3.00;;;;;12.51;46.55;98456.75;6027530;22;102289;-78
2021/01/15 07:05:46;;;;;;;;;2.00;2.00;;;;;12.50;46.17;98455.09;6002531;22;102341;-78
2021/01/15 07:08:13;;;;;;;;;3.50;2.00;;;;;12.50;46.90;98467.81;6027074;22;107899;-77
2021/01/15 07:10:40;;;;;;;;;2.75;1.75;;;;;12.49;46.56;98464.25;6009752;22;102111;-78
2021/01/15 07:13:09;;;;;;;;;2.00;1.00;;;;;12.49;46.68;98464.25;6027121;22;102360;-78
2021/01/15 07:15:42;;;;;;;;;3.25;3.00;;;;;12.48;46.38;98467.19;6031225;22;102400;-77
2021/01/15 07:18:21;;;;;;;;;2.00;2.00;;;;;12.49;46.31;98466.13;6019796;22;108749;-78
2021/01/15 07:20:49;;;;;;;;;2.50;2.00;;;;;12.48;46.80;98470.72;5906186;22;102166;-77
2021/01/15 07:23:15;;;;;;;;;2.75;2.75;;;;;12.47;46.43;98476.38;6025015;22;103202;-77
2021/01/15 07:25:48;;;;;;;;;3.00;2.00;;;;;12.45;45.95;98481.19;6026984;22;102375;-77
2021/01/15 07:28:15;;;;;;;;;2.00;2.00;;;;;12.46;45.94;98474.72;6030001;22;103630;-77
2021/01/15 07:30:42;;;;;;;;;2.00;2.00;;;;;12.45;46.42;98486.59;5996950;22;102407;-78
2021/01/15 07:33:09;;;;;;;;;2.25;2.00;;;;;12.43;46.96;98478.69;6007032;22;102267;-77
2021/01/15 07:35:37;;;;;;;;;1.00;1.00;;;;;12.44;46.96;98491.19;6029318;22;102352;-78
2021/01/15 07:38:14;;;;;;;;;4.25;3.00;;;;;12.44;46.54;98499.31;5996398;22;103351;-77
2021/01/15 07:40:42;;;;;;;;;3.00;3.00;;;;;12.44;46.85;98514.75;6025634;22;102480;-76
2021/01/15 07:43:33;;;;;;;;;2.00;2.00;;;;;12.43;46.45;98513.09;6005748;22;102444;-77
2021/01/15 07:46:03;;;;;;;;;4.00;2.00;;;;;12.42;46.71;98525.84;5945996;22;102350;-77
2021/01/15 07:48:30;;;;;;;;;3.00;2.50;;;;;12.43;46.42;98523.94;6024712;22;103310;-77
2021/01/15 07:50:57;;;;;;;;;3.00;2.75;;;;;12.40;46.98;98533.34;6028834;22;102211;-77
2021/01/15 07:53:36;;;;;;;;;2.00;2.00;;;;;12.40;46.85;98532.50;6026458;22;102183;-77
2021/01/15 07:56:04;;;;;;;;;2.00;2.00;;;;;12.40;46.45;98540.66;6027992;22;102650;-76
2021/01/15 07:58:42;;;;;;;;;1.75;1.75;;;;;12.39;46.39;98538.97;6030183;22;103738;-76
2021/01/15 08:01:16;;;;;;;;;2.00;2.00;;;;;12.38;46.01;98543.56;6026419;22;102101;-75
2021/01/15 08:03:58;;;;;;;;;3.00;3.00;;;;;12.39;46.02;98545.25;6022365;22;102156;-75
2021/01/15 08:06:30;;;;;;;;;3.00;2.25;;;;;12.39;46.32;98547.94;6033322;22;102428;-76
2021/01/15 08:08:59;;;;;;;;;2.75;2.00;;;;;12.39;46.12;98545.25;6027453;22;103298;-76
2021/01/15 08:11:28;;;;;;;;;2.75;2.75;;;;;12.38;46.76;98546.28;6027702;22;102179;-76
2021/01/15 08:14:23;;;;;;;;;3.00;3.00;;;;;12.38;46.47;98546.28;6029280;22;102314;-76
2021/01/15 08:16:50;;;;;;;;;2.00;2.00;;;;;12.38;46.23;98559.84;5940255;22;102334;-75
2021/01/15 08:19:19;;;;;;;;;2.75;2.75;;;;;12.39;46.68;98558.78;6025641;22;103010;-76
2021/01/15 08:21:46;;;;;;;;;5.75;3.00;;;;;12.38;46.48;98553.59;6029084;22;102232;-75
2021/01/15 08:24:13;;;;;;;;;3.00;3.00;;;;;12.38;46.37;98550.91;6026679;22;102191;-75
2021/01/15 08:26:55;;;;;;;;;5.50;3.50;;;;;12.39;46.16;98561.50;6030552;22;102369;-75
2021/01/15 08:29:29;;;;;;;;;3.50;2.50;;;;;12.39;46.50;98563.38;5936672;22;107826;-75
2021/01/15 08:31:57;;;;;;;;;4.00;2.25;;;;;12.39;46.25;98569.63;6030539;22;102120;-76
2021/01/15 08:34:34;;;;;;;;;2.75;2.00;;;;;12.39;46.65;98571.50;6024400;22;102246;-75
2021/01/15 08:37:02;;;;;;;;;3.75;3.75;;;;;12.38;46.21;98569.88;6033329;22;102332;-75
2021/01/15 08:39:48;;;;;;;;;3.50;3.00;;;;;12.38;46.56;98570.69;6027946;22;103296;-75
2021/01/15 08:42:15;;;;;;;;;5.00;3.00;;;;;12.38;46.50;98564.44;6019389;22;102381;-75
2021/01/15 08:44:42;;;;;;;;;5.25;3.25;;;;;12.37;45.98;98560.91;6026951;22;102219;-74
2021/01/15 08:47:10;;;;;;;;;4.25;3.00;;;;;12.38;46.53;98565.25;6030240;22;102777;-76
2021/01/15 08:49:38;;;;;;;;;2.50;2.50;;;;;12.40;46.24;98562.34;5999654;22;108564;-75
2021/01/15 08:52:05;;;;;;;;;2.00;2.00;;;;;12.40;46.64;98565.88;6028518;22;102235;-75
2021/01/15 08:54:33;;;;;;;;;5.50;4.00;;;;;12.39;46.58;98558.78;6032490;22;102635;-75
2021/01/15 08:57:02;;;;;;;;;4.00;4.00;;;;;12.38;46.27;98557.13;6002435;22;102474;-75
2021/01/15 08:59:30;;;;;;;;;4.00;4.00;;;;;12.39;46.74;98561.50;6023543;22;103781;-75
2021/01/15 09:02:00;;;;;;;;;4.00;3.50;;;;;12.41;46.79;98569.44;6026783;22;102101;-76
2021/01/15 09:04:29;;;;;;;;;3.00;2.25;;;;;12.42;46.65;98566.53;6025355;22;102352;-76
2021/01/15 09:07:00;;;;;;;;;3.75;3.75;;;;;12.40;46.45;98559.63;6023785;22;102321;-76
2021/01/15 09:09:29;;;;;;;;;4.50;3.75;;;;;12.40;46.52;98568.59;6025213;22;103773;-76
2021/01/15 09:12:04;;;;;;;;;3.25;3.00;;;;;12.40;45.95;98557.75;6026992;22;102145;-76
2021/01/15 09:14:39;;;;;;;;;4.00;3.00;;;;;12.40;46.21;98560.47;6026070;22;102289;-76
2021/01/15 09:17:07;;;;;;;;;3.25;2.75;;;;;12.41;46.05;98559.44;6032709;22;102299;-76
2021/01/15 09:19:35;;;;;;;;;2.25;2.25;;;;;12.42;46.04;98561.09;6026231;22;103189;-76
2021/01/15 09:22:08;;;;;;;;;2.00;2.00;;;;;12.42;46.37;98560.25;6030984;22;102336;-76
2021/01/15 09:24:35;;;;;;;;;4.00;4.00;;;;;12.39;46.53;98552.53;6033601;22;102130;-76
2021/01/15 09:27:06;;;;;;;;;4.00;4.00;;;;;12.42;45.96;98563.81;6031231;22;102336;-76
2021/01/15 09:29:34;;;;;;;;;5.00;4.00;;;;;12.42;46.17;98549.41;6027025;22;103279;-76
2021/01/15 09:32:04;;;;;;;;;5.00;4.75;;;;;12.43;45.84;98557.31;6031224;22;104624;-76
2021/01/15 09:34:31;;;;;;;;;8.00;4.25;;;;;12.43;45.55;98554.59;6028301;22;102307;-75
2021/01/15 09:36:58;;;;;;;;;3.50;3.25;;;;;12.43;45.72;98551.91;6031374;22;102152;-76
2021/01/15 09:39:26;;;;;;;;;4.00;3.75;;;;;12.44;46.31;98560.88;6029002;22;103982;-76
2021/01/15 09:41:57;;;;;;;;;5.75;5.25;;;;;12.43;45.74;98560.03;6030011;22;102423;-76
2021/01/15 09:44:25;;;;;;;;;3.50;3.00;;;;;12.43;45.78;98584.44;6030065;22;102205;-76
2021/01/15 09:47:03;;;;;;;;;4.25;4.00;;;;;12.43;45.60;98576.31;6032907;22;102505;-75
2021/01/15 09:49:33;;;;;;;;;3.25;3.25;;;;;12.44;46.11;98569.00;6029171;22;103776;-75
2021/01/15 09:52:01;;;;;;;;;3.75;3.00;;;;;12.43;46.26;98560.03;6021740;22;102303;-76
2021/01/15 09:54:29;;;;;;;;;5.50;4.75;;;;;12.43;45.81;98562.75;6030847;22;102333;-76
2021/01/15 09:56:55;;;;;;;;;5.25;5.25;;;;;12.45;45.97;98565.25;6029487;22;102395;-76
2021/01/15 09:59:22;;;;;;;;;4.00;3.00;;;;;12.44;46.02;98553.56;6002595;22;103315;-75
2021/01/15 10:01:49;;;;;;;;;4.25;3.50;;;;;12.45;46.02;98557.13;6026520;22;102139;-75
2021/01/15 10:04:16;;;;;;;;;3.00;3.00;;;;;12.45;45.56;98557.94;6024124;22;102292;-75
2021/01/15 10:06:44;;;;;;;;;3.50;3.00;;;;;12.44;45.59;98559.00;6005690;22;102438;-75
2021/01/15 10:09:11;;;;;;;;;3.50;2.25;;;;;12.45;45.70;98568.78;6006880;22;103423;-76
2021/01/15 10:11:45;;;;;;;;;3.00;2.25;;;;;12.45;46.17;98566.09;6032286;22;102177;-76
2021/01/15 10:14:16;;;;;;;;;3.00;3.00;;;;;12.46;45.36;98567.75;6027100;22;102112;-75
2021/01/15 10:16:49;;;;;;;;;4.75;3.00;;;;;12.45;45.88;98571.50;6030603;22;102284;-81
2021/01/15 10:19:17;;;;;;;;;4.50;3.00;;;;;12.45;45.92;98568.78;6026078;22;104654;-76
2021/01/15 10:21:44;;;;;;;;;5.00;4.00;;;;;12.46;46.20;98575.91;6030049;22;102266;-76
2021/01/15 10:24:11;;;;;;;;;3.50;2.75;;;;;12.48;46.35;98572.94;6032344;22;102386;-76
2021/01/15 10:26:39;;;;;;;;;3.50;3.50;;;;;12.47;45.58;98574.03;6031807;22;102288;-76
2021/01/15 10:29:08;;;;;;;;;4.00;3.75;;;;;12.49;46.34;98585.47;6002864;22;103188;-76
2021/01/15 10:31:48;;;;;;;;;3.00;3.00;;;;;12.50;45.80;98590.69;6032008;22;102245;-76
2021/01/15 10:34:15;;;;;;;;;3.00;2.25;;;;;12.51;45.74;98591.53;6001289;22;102320;-76
2021/01/15 10:36:43;;;;;;;;;3.75;3.00;;;;;12.52;45.92;98583.16;6029077;22;102282;-76
2021/01/15 10:39:10;;;;;;;;;3.00;3.00;;;;;12.52;45.48;98591.28;6033262;22;103318;-76
2021/01/15 10:41:38;;;;;;;;;3.00;3.00;;;;;12.53;46.08;98589.41;6029416;22;102239;-76
2021/01/15 10:44:06;;;;;;;;;2.75;2.75;;;;;12.53;46.05;98592.97;6024684;22;102058;-76
2021/01/15 10:46:37;;;;;;;;;3.50;3.00;;;;;12.53;45.74;98587.53;6031503;22;102339;-76
2021/01/15 10:49:05;;;;;;;;;4.50;3.00;;;;;12.52;46.12;98577.72;6028394;22;103571;-76
2021/01/15 10:51:31;;;;;;;;;3.00;3.00;;;;;12.53;46.49;98584.81;6022986;22;102125;-76
2021/01/15 10:53:58;;;;;;;;;3.50;2.25;;;;;12.53;45.91;98575.84;6024754;22;102410;-76
2021/01/15 10:56:25;;;;;;;;;2.00;2.00;;;;;12.52;46.34;98580.44;6027211;22;102403;-76
2021/01/15 10:58:52;;;;;;;;;3.00;3.00;;;;;12.52;46.16;98582.31;6009257;22;103665;-76
2021/01/15 11:01:21;;;;;;;;;3.50;2.75;;;;;12.53;45.54;98582.13;6028286;22;102138;-76
2021/01/15 11:03:48;;;;;;;;;2.75;2.00;;;;;12.54;45.57;98574.81;6026361;22;102286;-76
2021/01/15 11:06:19;;;;;;;;;3.25;3.25;;;;;12.55;45.80;98562.94;6030394;22;102250;-76
2021/01/15 11:08:45;;;;;;;;;3.25;3.25;;;;;12.56;45.98;98574.63;6029588;22;103401;-76
2021/01/15 11:11:12;;;;;;;;;3.25;3.00;;;;;12.57;45.86;98581.69;6029401;22;104652;-74
2021/01/15 11:13:39;;;;;;;;;2.25;2.00;;;;;12.55;46.07;98571.06;6034242;22;102283;-76
2021/01/15 11:16:13;;;;;;;;;7.25;3.25;;;;;12.56;45.92;98571.91;6028540;22;102371;-76
2021/01/15 11:18:40;;;;;;;;;4.00;3.00;;;;;12.56;45.28;98555.63;6028963;22;108159;-76
2021/01/15 11:21:07;;;;;;;;;3.75;3.00;;;;;12.56;46.05;98561.06;6024238;22;102254;-76
2021/01/15 11:23:34;;;;;;;;;4.00;4.00;;;;;12.55;45.41;98548.53;6021207;22;102127;-76
2021/01/15 11:26:01;;;;;;;;;3.00;2.00;;;;;12.55;45.39;98545.81;6024590;22;102419;-76
2021/01/15 11:28:27;;;;;;;;;4.00;3.25;;;;;12.57;45.86;98549.13;6026458;22;104451;-76
2021/01/15 11:30:54;;;;;;;;;3.75;3.75;;;;;12.55;45.39;98538.50;6023909;22;102297;-76
2021/01/15 11:33:21;;;;;;;;;5.00;3.75;;;;;12.56;46.02;98539.34;6003617;22;102334;-76
2021/01/15 11:35:48;;;;;;;;;3.00;2.75;;;;;12.56;45.73;98544.78;5957753;22;102430;-76
2021/01/15 11:38:15;;;;;;;;;5.00;4.00;;;;;12.58;45.10;98548.91;5951997;22;103476;-76